createdAt,value
2023-03-19T00:01:08.639Z,3.88
2023-03-19T00:03:38.084Z,3.70
2023-03-19T00:06:07.455Z,3.58
2023-03-19T00:08:36.634Z,3.88
2023-03-19T00:11:08.636Z,3.88
2023-03-19T00:13:37.846Z,3.30
2023-03-19T00:16:10.058Z,3.80
2023-03-19T00:18:39.354Z,3.72
2023-03-19T00:21:08.726Z,3.40
2023-03-19T00:23:38.069Z,3.30
2023-03-19T00:26:07.653Z,3.33
2023-03-19T00:28:37.411Z,3.35
2023-03-19T00:31:13.530Z,3.28
2023-03-19T00:33:42.828Z,3.30
2023-03-19T00:36:12.974Z,3.25
2023-03-19T00:38:42.236Z,3.30
2023-03-19T00:41:11.530Z,3.13
2023-03-19T00:43:41.208Z,3.15
2023-03-19T00:46:13.094Z,3.30
2023-03-19T00:48:42.296Z,3.40
2023-03-19T00:51:12.145Z,3.10
2023-03-19T00:53:42.254Z,3.40
2023-03-19T00:56:11.644Z,3.17
2023-03-19T00:58:41.244Z,3.10
2023-03-19T01:01:14.072Z,3.25
2023-03-19T01:03:43.637Z,2.97
2023-03-19T01:06:12.986Z,3.10
2023-03-19T01:08:42.253Z,2.80
2023-03-19T01:11:11.908Z,2.60
2023-03-19T01:13:41.445Z,2.13
2023-03-19T01:16:13.296Z,2.03
2023-03-19T01:18:42.476Z,2.10
2023-03-19T01:21:11.674Z,2.30
2023-03-19T01:23:41.005Z,2.00
2023-03-19T01:26:10.224Z,2.42
2023-03-19T01:28:39.606Z,2.10
2023-03-19T01:31:09.034Z,2.33
2023-03-19T01:33:40.853Z,2.55
2023-03-19T01:36:11.221Z,2.90
2023-03-19T01:38:40.410Z,2.80
2023-03-19T01:41:09.684Z,2.80
2023-03-19T01:43:39.074Z,2.80
2023-03-19T01:46:08.990Z,3.05
2023-03-19T01:48:42.109Z,3.08
2023-03-19T01:51:11.656Z,2.72
2023-03-19T01:53:41.135Z,2.70
2023-03-19T01:56:11.750Z,2.97
2023-03-19T01:58:41.287Z,2.80
2023-03-19T02:01:10.657Z,3.33
2023-03-19T02:03:42.754Z,3.10
2023-03-19T02:06:12.301Z,3.30
2023-03-19T02:08:41.712Z,3.50
2023-03-19T02:11:10.872Z,3.80
2023-03-19T02:13:40.092Z,3.50
2023-03-19T02:16:09.966Z,3.55
2023-03-19T02:18:39.294Z,3.42
2023-03-19T02:21:11.459Z,3.80
2023-03-19T02:23:42.064Z,3.60
2023-03-19T02:26:13.998Z,3.47
2023-03-19T02:28:44.381Z,3.30
2023-03-19T02:31:13.764Z,3.80
2023-03-19T02:33:43.183Z,3.50
2023-03-19T02:36:13.252Z,3.83
2023-03-19T02:38:42.472Z,3.63
2023-03-19T02:41:14.248Z,3.85
2023-03-19T02:43:43.695Z,3.97
2023-03-19T02:46:13.893Z,3.33
2023-03-19T02:48:43.983Z,3.55
2023-03-19T02:51:13.605Z,3.40
2023-03-19T02:53:42.836Z,3.95
2023-03-19T02:56:14.624Z,3.70
2023-03-19T02:58:43.806Z,4.10
2023-03-19T03:01:13.057Z,3.80
2023-03-19T03:03:42.792Z,3.92
2023-03-19T03:06:12.153Z,3.72
2023-03-19T03:08:41.359Z,3.92
2023-03-19T03:11:10.544Z,3.72
2023-03-19T03:13:43.288Z,3.63
2023-03-19T03:16:12.711Z,3.92
2023-03-19T03:18:42.581Z,4.07
2023-03-19T03:21:12.300Z,4.00
2023-03-19T03:23:41.493Z,4.22
2023-03-19T03:26:10.667Z,3.95
2023-03-19T03:28:42.440Z,3.92
2023-03-19T03:31:12.082Z,3.75
2023-03-19T03:33:41.321Z,3.95
2023-03-19T03:36:11.214Z,3.40
2023-03-19T03:38:40.648Z,3.15
2023-03-19T03:41:09.868Z,3.08
2023-03-19T03:43:39.514Z,3.00
2023-03-19T03:46:11.443Z,3.20
2023-03-19T03:48:40.680Z,3.08
2023-03-19T03:51:10.170Z,3.38
2023-03-19T03:53:39.353Z,3.50
2023-03-19T03:56:09.008Z,3.35
2023-03-19T03:58:38.191Z,3.70
2023-03-19T04:01:07.752Z,3.60
2023-03-19T04:03:41.416Z,3.60
2023-03-19T04:06:10.644Z,3.55
2023-03-19T04:08:39.834Z,3.50
2023-03-19T04:11:09.577Z,3.60
2023-03-19T04:13:39.273Z,3.90
2023-03-19T04:16:09.640Z,4.00
2023-03-19T04:18:41.493Z,4.00
2023-03-19T04:21:10.721Z,3.80
2023-03-19T04:23:39.906Z,4.15
2023-03-19T04:26:09.611Z,3.45
2023-03-19T04:28:38.791Z,3.47
2023-03-19T04:31:08.391Z,3.90
2023-03-19T04:33:37.887Z,4.10
2023-03-19T04:36:09.945Z,3.40
2023-03-19T04:38:39.216Z,3.90
2023-03-19T04:41:09.002Z,4.00
2023-03-19T04:43:38.166Z,3.95
2023-03-19T04:46:08.157Z,3.90
2023-03-19T04:48:39.468Z,3.83
2023-03-19T04:51:11.270Z,3.75
2023-03-19T04:53:40.618Z,3.70
2023-03-19T04:56:10.335Z,3.50
2023-03-19T04:58:39.550Z,3.70
2023-03-19T05:01:09.204Z,3.72
2023-03-19T05:03:38.480Z,3.75
2023-03-19T05:06:08.025Z,4.10
2023-03-19T05:08:39.936Z,4.03
2023-03-19T05:11:09.145Z,3.20
2023-03-19T05:13:38.357Z,3.33
2023-03-19T05:16:08.076Z,3.80
2023-03-19T05:18:40.081Z,3.60
2023-03-19T05:21:12.271Z,3.63
2023-03-19T05:26:13.103Z,3.33
2023-03-19T05:28:43.831Z,3.08
2023-03-19T05:31:13.080Z,3.00
2023-03-19T05:33:42.293Z,2.80
2023-03-19T05:36:12.477Z,2.83
2023-03-19T05:38:42.094Z,3.00
2023-03-19T05:41:14.034Z,2.90
2023-03-19T05:43:43.237Z,3.42
2023-03-19T05:46:12.490Z,3.35
2023-03-19T05:48:42.400Z,2.88
2023-03-19T05:51:11.699Z,3.10
2023-03-19T05:53:41.231Z,3.30
2023-03-19T05:56:11.172Z,2.78
2023-03-19T05:58:42.991Z,2.50
2023-03-19T06:01:12.257Z,2.60
2023-03-19T06:03:41.690Z,2.40
2023-03-19T06:06:11.042Z,2.30
2023-03-19T06:08:40.267Z,2.70
2023-03-19T06:11:09.528Z,2.70
2023-03-19T06:13:39.253Z,2.63
2023-03-19T06:16:11.530Z,2.90
2023-03-19T06:18:41.133Z,2.92
2023-03-19T06:21:10.417Z,2.90
2023-03-19T06:23:39.636Z,2.90
2023-03-19T06:26:09.365Z,3.30
2023-03-19T06:28:38.966Z,3.30
2023-03-19T06:31:10.752Z,3.80
2023-03-19T06:33:39.971Z,3.67
2023-03-19T06:36:09.453Z,3.47
2023-03-19T06:38:38.780Z,3.60
2023-03-19T06:41:07.988Z,3.38
2023-03-19T06:43:41.376Z,3.47
2023-03-19T06:46:13.428Z,3.40
2023-03-19T06:48:42.679Z,3.33
2023-03-19T06:51:11.927Z,3.00
2023-03-19T06:53:41.186Z,3.22
2023-03-19T06:56:10.449Z,3.50
2023-03-19T06:58:39.689Z,3.22
2023-03-19T07:01:09.343Z,4.13
2023-03-19T07:03:41.262Z,3.22
2023-03-19T07:06:10.540Z,3.80
2023-03-19T07:08:39.723Z,3.17
2023-03-19T07:11:09.163Z,3.28
2023-03-19T07:13:38.381Z,3.63
2023-03-19T07:16:08.231Z,3.30
2023-03-19T07:18:37.471Z,3.10
2023-03-19T07:21:09.372Z,3.33
2023-03-19T07:23:38.562Z,3.88
2023-03-19T07:26:07.857Z,3.67
2023-03-19T07:28:37.324Z,3.78
2023-03-19T07:31:07.092Z,4.10
2023-03-19T07:33:36.524Z,4.20
2023-03-19T07:36:06.144Z,4.30
2023-03-19T07:38:37.990Z,4.60
2023-03-19T07:41:07.506Z,4.20
2023-03-19T07:43:36.839Z,4.60
2023-03-19T07:46:06.435Z,4.50
2023-03-19T07:48:35.823Z,4.53
2023-03-19T07:51:05.097Z,4.55
2023-03-19T07:53:34.363Z,4.50
2023-03-19T07:56:06.263Z,4.47
2023-03-19T07:58:35.530Z,4.38
2023-03-19T08:01:04.765Z,4.80
2023-03-19T08:03:34.292Z,4.60
2023-03-19T08:06:03.945Z,4.50
2023-03-19T08:08:34.944Z,4.30
2023-03-19T08:11:07.062Z,4.68
2023-03-19T08:13:36.353Z,4.30
2023-03-19T08:16:06.074Z,4.50
2023-03-19T08:18:35.297Z,4.50
2023-03-19T08:21:04.496Z,4.57
2023-03-19T08:23:36.517Z,4.40
2023-03-19T08:26:08.349Z,4.53
2023-03-19T08:28:38.198Z,4.40
2023-03-19T08:31:10.995Z,4.53
2023-03-19T08:33:40.209Z,4.50
2023-03-19T08:36:10.110Z,4.60
2023-03-19T08:38:39.435Z,4.60
2023-03-19T08:41:11.228Z,4.28
2023-03-19T08:43:40.966Z,4.18
2023-03-19T08:46:10.368Z,4.20
2023-03-19T08:48:41.451Z,4.40
2023-03-19T08:51:10.888Z,4.03
2023-03-19T08:53:40.159Z,4.32
2023-03-19T08:56:12.183Z,4.32
2023-03-19T08:58:42.757Z,4.43
2023-03-19T09:01:12.947Z,4.43
2023-03-19T09:03:42.432Z,4.40
2023-03-19T09:06:12.354Z,4.28
2023-03-19T09:08:41.624Z,4.95
2023-03-19T09:11:14.578Z,4.43
2023-03-19T09:13:43.924Z,4.50
2023-03-19T09:16:13.122Z,5.00
2023-03-19T09:18:42.622Z,5.00
2023-03-19T09:21:12.129Z,4.90
2023-03-19T09:23:41.477Z,4.70
2023-03-19T09:26:13.253Z,4.80
2023-03-19T09:28:42.506Z,5.07
2023-03-19T09:31:12.530Z,4.47
2023-03-19T09:33:41.834Z,4.45
2023-03-19T09:36:11.200Z,4.72
2023-03-19T09:38:40.464Z,4.20
2023-03-19T09:41:11.375Z,4.90
2023-03-19T09:43:57.041Z,4.43
2023-03-19T09:46:29.332Z,4.30
2023-03-19T09:48:59.195Z,4.22
2023-03-19T09:51:30.354Z,4.70
2023-03-19T09:53:59.862Z,4.70
2023-03-19T09:56:29.126Z,4.55
2023-03-19T09:58:58.651Z,4.40
2023-03-19T10:01:31.636Z,4.10
2023-03-19T10:04:18.840Z,4.20
2023-03-19T10:06:50.120Z,4.32
2023-03-19T10:09:23.376Z,3.83
2023-03-19T10:11:57.738Z,4.00
2023-03-19T10:14:41.429Z,3.65
2023-03-19T10:17:14.677Z,3.75
2023-03-19T10:19:44.634Z,3.70
2023-03-19T10:22:15.015Z,3.63
2023-03-19T10:24:44.550Z,3.53
2023-03-19T10:27:14.940Z,3.85
2023-03-19T10:29:44.199Z,3.85
2023-03-19T10:32:18.914Z,3.78
2023-03-19T10:34:48.866Z,4.15
2023-03-19T10:37:20.524Z,3.70
2023-03-19T10:39:49.983Z,3.88
2023-03-19T10:42:22.316Z,3.70
2023-03-19T10:44:52.348Z,3.83
2023-03-19T10:47:24.132Z,3.60
2023-03-19T10:49:53.389Z,3.92
2023-03-19T10:52:24.675Z,3.95
2023-03-19T10:54:56.356Z,4.00
2023-03-19T10:57:27.530Z,4.10
2023-03-19T10:59:56.743Z,4.30
2023-03-19T11:02:32.003Z,4.63
2023-03-19T11:05:12.105Z,4.63
2023-03-19T11:07:41.291Z,4.38
2023-03-19T11:10:15.654Z,4.97
2023-03-19T11:12:44.944Z,4.95
2023-03-19T11:15:18.500Z,5.00
2023-03-19T11:17:51.739Z,4.70
2023-03-19T11:20:24.714Z,5.03
2023-03-19T11:22:54.278Z,4.63
2023-03-19T11:25:27.106Z,4.45
2023-03-19T11:28:03.718Z,4.90
2023-03-19T11:30:36.175Z,4.68
2023-03-19T11:33:16.032Z,5.03
2023-03-19T11:35:46.039Z,5.03
2023-03-19T11:38:16.682Z,4.82
2023-03-19T11:40:46.655Z,4.90
2023-03-19T11:43:22.983Z,4.70
2023-03-19T11:45:53.379Z,4.97
2023-03-19T11:48:28.877Z,4.88
2023-03-19T11:50:59.313Z,4.30
2023-03-19T11:53:29.625Z,4.00
2023-03-19T11:56:01.930Z,4.30
2023-03-19T11:58:46.850Z,4.47
2023-03-19T12:01:17.549Z,4.25
2023-03-19T12:04:01.680Z,4.60
2023-03-19T12:06:35.093Z,4.40
2023-03-19T12:09:05.016Z,5.20
2023-03-19T12:11:36.710Z,5.60
2023-03-19T12:14:09.634Z,8.90
2023-03-19T12:16:46.315Z,5.18
2023-03-19T12:19:20.594Z,4.78
2023-03-19T12:21:56.263Z,4.78
2023-03-19T12:24:28.645Z,5.07
2023-03-19T12:26:59.956Z,5.47
2023-03-19T12:29:30.972Z,5.40
2023-03-19T12:34:31.212Z,6.03
2023-03-19T12:37:05.870Z,4.70
2023-03-19T12:39:35.882Z,5.30
2023-03-19T12:42:05.100Z,5.20
2023-03-19T12:44:35.621Z,5.60
2023-03-19T12:47:05.384Z,5.10
2023-03-19T12:49:36.332Z,5.88
2023-03-19T12:52:09.589Z,7.78
2023-03-19T12:54:39.314Z,7.22
2023-03-19T12:57:09.824Z,6.57
2023-03-19T12:59:39.319Z,5.68
2023-03-19T13:02:11.867Z,4.60
2023-03-19T13:04:41.680Z,4.13
2023-03-19T13:07:14.541Z,4.28
2023-03-19T13:09:45.063Z,3.50
2023-03-19T13:12:14.672Z,3.60
2023-03-19T13:14:47.747Z,3.67
2023-03-19T13:17:20.266Z,3.63
2023-03-19T13:19:52.264Z,3.60
2023-03-19T13:22:24.505Z,3.30
2023-03-19T13:24:53.718Z,3.67
2023-03-19T13:27:23.790Z,2.95
2023-03-19T13:29:58.655Z,3.55
2023-03-19T13:32:28.353Z,2.97
2023-03-19T13:35:10.958Z,3.50
2023-03-19T13:37:43.294Z,3.50
2023-03-19T13:40:27.392Z,3.58
2023-03-19T13:42:58.583Z,4.10
2023-03-19T13:45:32.154Z,3.63
2023-03-19T13:48:08.629Z,3.60
2023-03-19T13:50:53.070Z,3.17
2023-03-19T13:53:35.064Z,3.40
2023-03-19T13:56:12.814Z,2.58
2023-03-19T13:58:52.665Z,2.78
2023-03-19T14:01:36.947Z,3.00
2023-03-19T14:04:06.498Z,2.78
2023-03-19T14:06:37.040Z,2.58
2023-03-19T14:09:09.691Z,2.50
2023-03-19T14:11:39.291Z,3.05
2023-03-19T14:14:08.960Z,2.92
2023-03-19T14:16:38.563Z,2.83
2023-03-19T14:19:13.867Z,2.85
2023-03-19T14:21:46.869Z,9.70
2023-03-19T14:24:55.176Z,2.50
2023-03-19T14:27:19.821Z,2.90
2023-03-19T14:29:49.092Z,3.53
2023-03-19T14:32:18.904Z,2.80
2023-03-19T14:34:48.389Z,2.67
2023-03-19T14:37:22.123Z,3.13
2023-03-19T14:39:55.819Z,2.67
2023-03-19T14:42:26.011Z,2.40
2023-03-19T14:45:14.328Z,2.27
2023-03-19T14:47:48.121Z,2.47
2023-03-19T14:50:44.130Z,3.25
2023-03-19T14:53:14.974Z,2.60
2023-03-19T14:55:49.809Z,2.45
2023-03-19T14:58:18.993Z,2.50
2023-03-19T15:00:48.727Z,2.70
2023-03-19T15:03:22.094Z,2.40
2023-03-19T15:05:52.581Z,2.20
2023-03-19T15:08:23.314Z,2.30
2023-03-19T15:10:57.867Z,2.17
2023-03-19T15:13:29.809Z,1.95
2023-03-19T15:16:06.014Z,2.13
2023-03-19T15:18:35.341Z,2.20
2023-03-19T15:21:04.959Z,2.20
2023-03-19T15:23:34.226Z,2.10
2023-03-19T15:26:08.770Z,2.00
2023-03-19T15:28:46.758Z,2.10
2023-03-19T15:31:30.966Z,2.40
2023-03-19T15:34:02.641Z,2.40
2023-03-19T15:36:33.283Z,2.30
2023-03-19T15:39:03.253Z,2.25
2023-03-19T15:41:35.944Z,2.05
2023-03-19T15:44:05.278Z,2.10
2023-03-19T15:46:35.074Z,2.00
2023-03-19T15:49:05.410Z,2.38
2023-03-19T15:51:34.647Z,2.10
2023-03-19T15:54:03.840Z,2.10
2023-03-19T15:56:35.642Z,2.20
2023-03-19T15:59:05.542Z,2.00
2023-03-19T16:01:34.795Z,1.95
2023-03-19T16:04:04.413Z,2.00
2023-03-19T16:06:34.254Z,2.10
2023-03-19T16:09:10.030Z,1.80
2023-03-19T16:11:41.848Z,1.70
2023-03-19T16:14:12.685Z,2.20
2023-03-19T16:16:42.176Z,2.00
2023-03-19T16:19:26.230Z,2.60
2023-03-19T16:21:55.453Z,2.40
2023-03-19T16:24:27.485Z,1.98
2023-03-19T16:26:59.266Z,1.80
2023-03-19T16:29:28.978Z,2.35
2023-03-19T16:32:01.529Z,2.30
2023-03-19T16:34:37.384Z,2.00
2023-03-19T16:37:21.452Z,2.28
2023-03-19T16:39:56.262Z,2.30
2023-03-19T16:42:32.279Z,2.00
2023-03-19T16:45:04.245Z,2.05
2023-03-19T16:47:33.485Z,2.72
2023-03-19T16:50:02.700Z,2.50
2023-03-19T16:52:31.928Z,3.13
2023-03-19T16:55:01.294Z,3.42
2023-03-19T16:57:33.095Z,2.63
2023-03-19T17:00:02.330Z,2.70
2023-03-19T17:02:31.556Z,3.50
2023-03-19T17:05:00.876Z,2.40
2023-03-19T17:07:30.125Z,2.47
2023-03-19T17:09:59.324Z,2.60
2023-03-19T17:12:28.530Z,2.30
2023-03-19T17:15:00.388Z,2.40
2023-03-19T17:17:29.708Z,2.63
2023-03-19T17:19:59.037Z,2.60
2023-03-19T17:22:28.304Z,2.38
2023-03-19T17:24:57.822Z,2.30
2023-03-19T17:27:28.025Z,2.40
2023-03-19T17:29:59.790Z,2.47
2023-03-19T17:32:29.034Z,2.60
2023-03-19T17:34:58.210Z,2.83
2023-03-19T17:37:27.450Z,2.65
2023-03-19T17:39:56.978Z,2.90
2023-03-19T17:42:26.634Z,2.85
2023-03-19T17:44:56.912Z,3.00
2023-03-19T17:47:28.840Z,2.60
2023-03-19T17:49:58.207Z,4.80
2023-03-19T17:52:27.433Z,5.70
2023-03-19T17:54:56.622Z,4.63
2023-03-19T17:57:26.961Z,4.50
2023-03-19T17:59:56.192Z,4.47
2023-03-19T18:02:31.670Z,4.82
2023-03-19T18:05:00.881Z,6.30
2023-03-19T18:07:30.097Z,6.30
2023-03-19T18:09:59.306Z,5.97
2023-03-19T18:12:28.529Z,5.90
2023-03-19T18:14:57.870Z,5.30
2023-03-19T18:17:27.208Z,5.50
2023-03-19T18:19:59.525Z,5.20
2023-03-19T18:22:29.173Z,5.00
2023-03-19T18:24:58.672Z,4.90
2023-03-19T18:27:28.059Z,5.43
2023-03-19T18:29:57.310Z,5.40
2023-03-19T18:32:27.920Z,8.52
2023-03-19T18:34:59.723Z,10.50
2023-03-19T18:37:30.111Z,7.30
2023-03-19T18:39:59.336Z,6.57
2023-03-19T18:42:28.523Z,6.30
2023-03-19T18:44:57.868Z,5.28
2023-03-19T18:47:27.048Z,4.50
2023-03-19T18:49:57.759Z,4.50
2023-03-19T18:52:29.697Z,4.68
2023-03-19T18:54:58.985Z,4.55
2023-03-19T18:57:28.212Z,5.18
2023-03-19T18:59:57.531Z,5.88
2023-03-19T19:02:32.106Z,6.07
2023-03-19T19:05:01.459Z,6.88
2023-03-19T19:07:33.269Z,9.90
2023-03-19T19:10:05.363Z,9.43
2023-03-19T19:12:35.058Z,8.48
2023-03-19T19:15:05.049Z,8.63
2023-03-19T19:17:35.198Z,8.57
2023-03-19T19:20:04.474Z,8.93
2023-03-19T19:22:36.332Z,8.48
2023-03-19T19:25:05.911Z,8.38
2023-03-19T19:27:35.115Z,8.52
2023-03-19T19:30:04.362Z,7.30
2023-03-19T19:32:35.360Z,7.00
2023-03-19T19:40:08.195Z,6.63
2023-03-19T19:42:37.379Z,5.93
2023-03-19T19:45:07.162Z,5.88
2023-03-19T19:47:37.372Z,5.57
2023-03-19T19:50:07.060Z,5.70
2023-03-19T19:52:36.389Z,5.53
2023-03-19T19:55:10.979Z,5.57
2023-03-19T19:57:40.170Z,6.50
2023-03-19T20:00:12.824Z,6.85
2023-03-19T20:02:42.026Z,6.50
2023-03-19T20:05:12.170Z,6.68
2023-03-19T20:07:41.352Z,6.37
2023-03-19T20:10:13.807Z,5.70
2023-03-19T20:12:44.648Z,5.80
2023-03-19T20:15:17.775Z,5.80
2023-03-19T20:17:47.397Z,6.40
2023-03-19T20:20:17.416Z,7.70
2023-03-19T20:22:46.651Z,6.80
2023-03-19T20:25:18.694Z,7.53
2023-03-19T20:27:47.910Z,7.63
2023-03-19T20:30:23.176Z,8.38
2023-03-19T20:32:52.973Z,8.07
2023-03-19T20:35:23.189Z,12.40
2023-03-19T20:37:52.996Z,10.03
2023-03-19T20:40:25.235Z,8.35
2023-03-19T20:42:54.538Z,9.95
2023-03-19T20:45:24.308Z,8.63
2023-03-19T20:47:57.022Z,8.07
2023-03-19T20:50:28.152Z,8.23
2023-03-19T20:53:01.240Z,8.07
2023-03-19T20:55:33.989Z,7.88
2023-03-19T20:58:03.805Z,7.40
2023-03-19T21:00:33.636Z,7.78
2023-03-19T21:03:03.874Z,7.88
2023-03-19T21:05:35.050Z,8.03
2023-03-19T21:08:04.487Z,8.75
2023-03-19T21:10:37.759Z,8.73
2023-03-19T21:13:07.248Z,7.75
2023-03-19T21:15:37.036Z,7.43
2023-03-19T21:18:06.475Z,6.80
2023-03-19T21:20:36.066Z,6.40
2023-03-19T21:23:08.082Z,5.35
2023-03-19T21:25:39.869Z,5.35
2023-03-19T21:28:09.592Z,5.65
2023-03-19T21:30:39.807Z,6.30
2023-03-19T21:33:09.427Z,6.23
2023-03-19T21:35:38.881Z,6.30
2023-03-19T21:38:08.238Z,6.60
2023-03-19T21:40:40.021Z,6.65
2023-03-19T21:43:09.404Z,6.18
2023-03-19T21:45:39.700Z,6.32
2023-03-19T21:48:19.721Z,7.60
2023-03-19T21:50:50.134Z,8.43
2023-03-19T21:53:19.352Z,7.80
2023-03-19T21:55:51.162Z,6.85
2023-03-19T21:58:20.888Z,6.30
2023-03-19T22:00:50.161Z,6.15
2023-03-19T22:03:20.123Z,5.80
2023-03-19T22:05:49.923Z,6.43
2023-03-19T22:08:20.462Z,6.55
2023-03-19T22:10:52.865Z,6.60
2023-03-19T22:13:22.271Z,6.38
2023-03-19T22:15:54.841Z,6.07
2023-03-19T22:18:24.066Z,6.22
2023-03-19T22:20:53.291Z,6.07
2023-03-19T22:23:23.032Z,5.90
2023-03-19T22:25:55.317Z,6.22
2023-03-19T22:28:25.846Z,6.10
2023-03-19T22:30:55.066Z,5.50
2023-03-19T22:33:24.599Z,5.30
2023-03-19T22:35:53.924Z,5.38
2023-03-19T22:38:23.538Z,5.45
2023-03-19T22:40:55.615Z,6.20
2023-03-19T22:43:25.317Z,5.93
2023-03-19T22:45:56.530Z,6.18
2023-03-19T22:48:26.118Z,5.47
2023-03-19T22:50:55.481Z,5.80
2023-03-19T22:53:24.946Z,6.70
2023-03-19T22:55:56.704Z,5.90
2023-03-19T22:58:25.909Z,5.88
2023-03-19T23:00:56.187Z,6.10
2023-03-19T23:03:25.849Z,6.28
2023-03-19T23:05:55.599Z,6.95
2023-03-19T23:08:24.804Z,6.55
2023-03-19T23:10:54.210Z,7.05
2023-03-19T23:13:26.180Z,6.97
2023-03-19T23:15:56.972Z,6.28
2023-03-19T23:18:29.295Z,5.60
2023-03-19T23:20:58.750Z,6.10
2023-03-19T23:23:28.171Z,5.80
2023-03-19T23:25:57.454Z,6.18
2023-03-19T23:28:31.416Z,6.32
2023-03-19T23:31:01.320Z,6.13
2023-03-19T23:33:30.681Z,6.50
2023-03-19T23:36:00.562Z,6.78
2023-03-19T23:38:29.801Z,7.60
2023-03-19T23:40:59.030Z,7.50
2023-03-19T23:43:30.973Z,7.10
2023-03-19T23:46:00.304Z,7.05
2023-03-19T23:48:30.535Z,5.95
2023-03-19T23:50:59.705Z,6.13
2023-03-19T23:53:29.416Z,5.55
2023-03-19T23:55:59.461Z,5.80
2023-03-19T23:58:32.770Z,5.50
